Flugplatz Holzdorf Airport

Bericht für ETSH

vom 31.03. um 22:20 UTC

kein Wind

Sichtweite 8000 m

Temperatur -5.0°C

Taupunkt -9.0°C

Luftfeuchtigkeit 73%

Luftdruck 1027 hPa

ETSH 312220Z AUTO 00000KT 8000 // ////// M05/M09 Q1027 ///
Keine Prognose (TAF) verfügbar.
Impressum